Darstellungsparameter: Aktuell verwendete Einstellungen:
Skalierung der Graphiken ... ?
xyx+y,   Skalierungsfaktor:      Skalierung: Modus: x, Faktor: 1
Darstellungszeitraum ... ?
Vom - - bis: - -   Zeitraum: 03.08.2017 - 02.08.2020
Min/Max/Avg-Anzeige ... ?
Zeige MMA aktuell
Zeige MMA Monat
Zeige MMA alles
Zeige --A aktuell
Zeige --A Monat
Zeige --A alles
Keine MMA-Anzeige
MMA:
Keine MMA-Graphiken
MMA-Basis: 03.08.2017 - 02.08.2020
Quicknavigation für Darstellung... ?
Tage:      1T, 2T, 3T, 5T -1T -2T -3T -5T +1T +2T +3T +5T
Wochen: 1W, 2W, 3W -1W -2W -3W +1W +2W +3W
Monate: 1M, 3M, 6M -1M -3M -6M +1M +3M +6M
Jahre:    1J, 3J, 5J, 10J -1J -3J -5J -10J +1J +3J +5J +10J
Nutze für die Darstellung ... ?
Originaldaten oder ...
Mittelwerte Minima Maxima auf...
Stundenbasis Tagesbasis Wochenbasis
Monatsbasis Jahresbasis      Datenbasis: Mittelwerte auf Tagesbasis
Darstellen als:
Statistik (Auto) Statistik J:M      Darstellung:
Zur Graphik,    zurück zur Übersicht aller Sensoren.
 
Tabellarische Datenbersicht: ?
 
Sensor: Nr:Datum:Temp:Feuchte:Taupunkt:
Aussen-T/F 1 03-08-2017 00:00:00 21.32153 C 83.4271 % 18.4 C
2 04-08-2017 00:00:00 20.4309 C 76.2500 % 16.11 C
3 05-08-2017 00:00:00 18.99826 C 79.7326 % 15.42 C
4 06-08-2017 00:00:00 17.06181 C 74.4028 % 12.48 C
5 07-08-2017 00:00:00 17.21319 C 74.5313 % 12.65 C
6 08-08-2017 00:00:00 17.34063 C 86.7500 % 15.11 C
7 09-08-2017 00:00:00 17.64167 C 77.9826 % 13.76 C
8 10-08-2017 00:00:00 15.45139 C 94.6771 % 14.6 C
9 11-08-2017 00:00:00 14.99271 C 95.3889 % 14.26 C
10 12-08-2017 00:00:00 15.39965 C 94.4688 % 14.52 C
11 13-08-2017 00:00:00 18.25694 C 84.2813 % 15.56 C
12 14-08-2017 00:00:00 18.07396 C 87.2535 % 15.92 C
13 15-08-2017 00:00:00 18.78299 C 93.5243 % 17.72 C
14 16-08-2017 00:00:00 19.80486 C 87.2847 % 17.63 C
15 17-08-2017 00:00:00 19.18438 C 87.3125 % 17.02 C
16 18-08-2017 00:00:00 18.28819 C 94.1632 % 17.33 C
17 19-08-2017 00:00:00 14.62049 C 90.6076 % 13.1 C
18 20-08-2017 00:00:00 14.85243 C 86.3993 % 12.6 C
19 21-08-2017 00:00:00 15.85833 C 82.2049 % 12.83 C
20 22-08-2017 00:00:00 15.7316 C 84.9097 % 13.2 C
21 23-08-2017 00:00:00 17.82812 C 84.2535 % 15.14 C
22 24-08-2017 00:00:00 19.30625 C 82.1632 % 16.19 C
23 25-08-2017 00:00:00 18.12049 C 89.3993 % 16.35 C
24 26-08-2017 00:00:00 20.59861 C 92.9132 % 19.41 C
25 27-08-2017 00:00:00 19.43507 C 89.5035 % 17.66 C
Sensor: Nr:Datum:Temp:Feuchte:Taupunkt:
Aussen-T/F 26 28-08-2017 00:00:00 19.49063 C 85.7882 % 17.05 C
27 29-08-2017 00:00:00 19.97986 C 86.3507 % 17.63 C
28 30-08-2017 00:00:00 20.58819 C 89.0903 % 18.73 C
29 31-08-2017 00:00:00 17.03194 C 87.1493 % 14.88 C
30 01-09-2017 00:00:00 13.72639 C 88.3785 % 11.84 C
31 02-09-2017 00:00:00 14.2625 C 89.4271 % 12.55 C
32 03-09-2017 00:00:00 13.22257 C 87.7743 % 11.24 C
33 04-09-2017 00:00:00 13.75208 C 90.0313 % 12.15 C
34 05-09-2017 00:00:00 17.85347 C 90.3160 % 16.25 C
35 06-09-2017 00:00:00 17.36389 C 78.5868 % 13.61 C
36 07-09-2017 00:00:00 15.38472 C 80.6389 % 12.08 C
37 08-09-2017 00:00:00 15.88958 C 80.7917 % 12.6 C
38 09-09-2017 00:00:00 14.59236 C 91.5764 % 13.24 C
39 10-09-2017 00:00:00 13.23924 C 88.7951 % 11.43 C
40 11-09-2017 00:00:00 14.41667 C 84.9861 % 11.93 C
41 12-09-2017 00:00:00 14.27674 C 84.4097 % 11.69 C
42 13-09-2017 00:00:00 14.43993 C 87.5729 % 12.4 C
43 14-09-2017 00:00:00 11.98194 C 92.1076 % 10.74 C
44 15-09-2017 00:00:00 12.37917 C 88.0347 % 10.46 C
45 16-09-2017 00:00:00 10.41007 C 88.3021 % 8.56 C
46 17-09-2017 00:00:00 9.97118 C 94.9861 % 9.21 C
47 18-09-2017 00:00:00 10.50764 C 90.8785 % 9.08 C
48 19-09-2017 00:00:00 11.95903 C 92.7049 % 10.82 C
49 20-09-2017 00:00:00 11.3184 C 92.6076 % 10.17 C
50 21-09-2017 00:00:00 10.7559 C 92.2222 % 9.55 C
Sensor: Nr:Datum:Temp:Feuchte:Taupunkt:
Aussen-T/F 51 22-09-2017 00:00:00 11.39757 C 92.7222 % 10.26 C
52 23-09-2017 00:00:00 13.63785 C 89.4965 % 11.94 C
53 24-09-2017 00:00:00 12.54826 C 93.5660 % 11.54 C
54 25-09-2017 00:00:00 12.85729 C 92.9514 % 11.75 C
55 26-09-2017 00:00:00 13.54097 C 92.1389 % 12.29 C
56 27-09-2017 00:00:00 13.15069 C 94.1597 % 12.23 C
57 28-09-2017 00:00:00 14.79861 C 93.9063 % 13.83 C
58 29-09-2017 00:00:00 17.64722 C 91.7083 % 16.28 C
59 30-09-2017 00:00:00 14.56597 C 95.2326 % 13.81 C
60 01-10-2017 00:00:00 11.45937 C 95.0451 % 10.69 C
61 02-10-2017 00:00:00 14.42951 C 92.9132 % 13.3 C
62 03-10-2017 00:00:00 12.49618 C 88.9201 % 10.72 C
63 04-10-2017 00:00:00 11.37812 C 88.0972 % 9.48 C
64 05-10-2017 00:00:00 12.35868 C 85.7847 % 10.05 C
65 06-10-2017 00:00:00 9.83438 C 91.6285 % 8.54 C
66 07-10-2017 00:00:00 10.24653 C 89.7535 % 8.64 C
67 08-10-2017 00:00:00 11.93993 C 93.6181 % 10.94 C
68 09-10-2017 00:00:00 11.42222 C 93.6285 % 10.43 C
69 10-10-2017 00:00:00 13.19062 C 93.1424 % 12.11 C
70 11-10-2017 00:00:00 13.59722 C 90.6111 % 12.09 C
71 12-10-2017 00:00:00 13.7684 C 84.9618 % 11.29 C
72 13-10-2017 00:00:00 14.15556 C 91.8646 % 12.85 C
73 14-10-2017 00:00:00 13.13611 C 95.3750 % 12.41 C
74 15-10-2017 00:00:00 12.53021 C 95.9410 % 11.9 C
75 16-10-2017 00:00:00 13.45347 C 95.6215 % 12.77 C
Sensor: Nr:Datum:Temp:Feuchte:Taupunkt:
Aussen-T/F 76 17-10-2017 00:00:00 13.09201 C 95.8299 % 12.44 C
77 18-10-2017 00:00:00 12.20313 C 95.8264 % 11.56 C
78 19-10-2017 00:00:00 11.5059 C 95.8472 % 10.87 C
79 20-10-2017 00:00:00 10.5122 C 88.5610 % 8.71 C
80 21-10-2017 00:00:00 11.76076 C 91.4410 % 10.41 C
81 22-10-2017 00:00:00 10.78507 C 85.4340 % 8.44 C
82 23-10-2017 00:00:00 10.79653 C 87.4826 % 8.8 C
83 24-10-2017 00:00:00 13.69826 C 91.2465 % 12.3 C
84 25-10-2017 00:00:00 15.51111 C 87.4271 % 13.43 C
85 26-10-2017 00:00:00 13.26736 C 91.1389 % 11.85 C
86 27-10-2017 00:00:00 11.49132 C 89.5660 % 9.84 C
87 28-10-2017 00:00:00 10.36076 C 83.1944 % 7.64 C
88 29-10-2017 00:00:00 10.65694 C 82.5243 % 7.81 C
89 30-10-2017 00:00:00 7.17326 C 85.5243 % 4.91 C
90 31-10-2017 00:00:00 7.26806 C 85.6944 % 5.04 C
91 01-11-2017 00:00:00 8.73021 C 85.5313 % 6.44 C
92 02-11-2017 00:00:00 8.66389 C 87.8333 % 6.76 C
93 03-11-2017 00:00:00 7.17014 C 93.6285 % 6.21 C
94 04-11-2017 00:00:00 8.34132 C 94.7292 % 7.55 C
95 05-11-2017 00:00:00 8.89965 C 92.2083 % 7.71 C
96 06-11-2017 00:00:00 5.51424 C 92.8542 % 4.45 C
97 07-11-2017 00:00:00 4.45868 C 95.0833 % 3.74 C
98 08-11-2017 00:00:00 6.63854 C 96.5035 % 6.12 C
99 09-11-2017 00:00:00 7.54028 C 95.7569 % 6.91 C
100 10-11-2017 00:00:00 7.46563 C 90.7535 % 6.06 C
Sensor: Nr:Datum:Temp:Feuchte:Taupunkt:
Aussen-T/F 101 11-11-2017 00:00:00 6.4559 C 93.8090 % 5.53 C
102 12-11-2017 00:00:00 4.6809 C 96.1632 % 4.12 C
103 13-11-2017 00:00:00 5.61111 C 92.8125 % 4.54 C
104 14-11-2017 00:00:00 4.67951 C 94.3785 % 3.86 C
105 15-11-2017 00:00:00 6.91389 C 90.0799 % 5.4 C
106 16-11-2017 00:00:00 4.84201 C 93.1424 % 3.83 C
107 17-11-2017 00:00:00 6.01007 C 95.7535 % 5.38 C
108 18-11-2017 00:00:00 3.55278 C 91.3403 % 2.28 C
109 19-11-2017 00:00:00 5.66389 C 89.5764 % 4.09 C
110 20-11-2017 00:00:00 5.24618 C 91.6250 % 4 C
111 21-11-2017 00:00:00 9.24063 C 90.6597 % 7.79 C
112 22-11-2017 00:00:00 8.26528 C 88.1146 % 6.42 C
113 23-11-2017 00:00:00 9.3059 C 88.0486 % 7.43 C
114 24-11-2017 00:00:00 10.45451 C 92.4028 % 9.28 C
115 25-11-2017 00:00:00 5.3059 C 95.5521 % 4.65 C
116 26-11-2017 00:00:00 3.77986 C 88.7986 % 2.11 C
117 27-11-2017 00:00:00 5.66632 C 87.1875 % 3.71 C
118 28-11-2017 00:00:00 4.26181 C 94.5347 % 3.46 C
119 29-11-2017 00:00:00 3.03576 C 95.4618 % 2.38 C
120 30-11-2017 00:00:00 2.44201 C 95.3958 % 1.78 C
121 01-12-2017 00:00:00 1.13021 C 95.6389 % 0.51 C
122 02-12-2017 00:00:00 0.97604 C 94.2361 % 0.16 C
123 03-12-2017 00:00:00 0.67674 C 93.3958 % -0.26 C
124 04-12-2017 00:00:00 3.2816 C 95.5799 % 2.64 C
125 05-12-2017 00:00:00 4.74826 C 93.4792 % 3.79 C
Sensor: Nr:Datum:Temp:Feuchte:Taupunkt:
Aussen-T/F 126 06-12-2017 00:00:00 5.89792 C 90.1493 % 4.41 C
127 07-12-2017 00:00:00 4.77986 C 86.2465 % 2.68 C
128 08-12-2017 00:00:00 3.52014 C 88.7153 % 1.84 C
129 09-12-2017 00:00:00 1.27569 C 83.4618 % -1.21 C
130 10-12-2017 00:00:00 2.40903 C 88.7049 % 0.74 C
131 11-12-2017 00:00:00 6.02118 C 93.7708 % 5.1 C
132 12-12-2017 00:00:00 3.72292 C 84.9792 % 1.44 C
133 13-12-2017 00:00:00 3.81597 C 89.6875 % 2.28 C
134 14-12-2017 00:00:00 4.58611 C 90.0625 % 3.1 C
135 15-12-2017 00:00:00 2.98611 C 95.5903 % 2.35 C
136 16-12-2017 00:00:00 3.04167 C 95.9618 % 2.46 C
137 17-12-2017 00:00:00 3.05208 C 92.1076 % 1.9 C
138 18-12-2017 00:00:00 1.66944 C 95.4444 % 1.02 C
139 19-12-2017 00:00:00 3.35556 C 97.1146 % 2.94 C
140 20-12-2017 00:00:00 5.65625 C 97.6389 % 5.31 C
141 21-12-2017 00:00:00 7.51667 C 97.5556 % 7.16 C
142 22-12-2017 00:00:00 8.8125 C 97.8889 % 8.5 C
143 23-12-2017 00:00:00 8.76389 C 93.7813 % 7.82 C
144 24-12-2017 00:00:00 8.92292 C 88.6319 % 7.15 C
145 25-12-2017 00:00:00 6.77708 C 85.7292 % 4.56 C
146 26-12-2017 00:00:00 4.68299 C 90.7431 % 3.3 C
147 27-12-2017 00:00:00 5.13993 C 92.8854 % 4.09 C
148 28-12-2017 00:00:00 3.24826 C 88.2396 % 1.49 C
149 29-12-2017 00:00:00 2.41944 C 88.1667 % 0.67 C
150 30-12-2017 00:00:00 7.77187 C 90.7882 % 6.36 C
Sensor: Nr:Datum:Temp:Feuchte:Taupunkt:
Aussen-T/F 151 31-12-2017 00:00:00 12.74549 C 82.5729 % 9.86 C
152 01-01-2018 00:00:00 7.71458 C 84.2153 % 5.22 C
153 02-01-2018 00:00:00 6.21076 C 88.1979 % 4.41 C
154 03-01-2018 00:00:00 8.40313 C 84.5174 % 5.95 C
155 04-01-2018 00:00:00 8.24792 C 89.7014 % 6.66 C
156 05-01-2018 00:00:00 8.32257 C 89.6424 % 6.72 C
157 06-01-2018 00:00:00 6.22188 C 96.7917 % 5.75 C
158 07-01-2018 00:00:00 5.11458 C 92.0417 % 3.93 C
159 08-01-2018 00:00:00 4.61597 C 89.1007 % 2.98 C
160 09-01-2018 00:00:00 5.0191 C 93.0521 % 3.99 C
161 10-01-2018 00:00:00 6.95243 C 92.3472 % 5.8 C
162 11-01-2018 00:00:00 6.99653 C 95.0660 % 6.26 C
163 12-01-2018 00:00:00 6.57708 C 95.7674 % 5.95 C
164 13-01-2018 00:00:00 5.39062 C 89.7813 % 3.85 C
165 14-01-2018 00:00:00 2.95174 C 85.5208 % 0.77 C
166 15-01-2018 00:00:00 3.65833 C 91.1181 % 2.35 C
167 16-01-2018 00:00:00 6.14618 C 85.7569 % 3.94 C
168 17-01-2018 00:00:00 3.45868 C 86.7569 % 1.47 C
169 18-01-2018 00:00:00 5.94167 C 81.9479 % 3.1 C
170 19-01-2018 00:00:00 3.96146 C 86.6771 % 1.95 C
171 20-01-2018 00:00:00 3.05937 C 91.0486 % 1.74 C
172 21-01-2018 00:00:00 2.72951 C 93.5451 % 1.8 C
173 22-01-2018 00:00:00 5.11563 C 93.7708 % 4.2 C
174 23-01-2018 00:00:00 7.37049 C 88.6250 % 5.62 C
175 24-01-2018 00:00:00 11.38021 C 86.3785 % 9.19 C
Sensor: Nr:Datum:Temp:Feuchte:Taupunkt:
Aussen-T/F 176 25-01-2018 00:00:00 9.87465 C 92.0243 % 8.64 C
177 26-01-2018 00:00:00 6.62222 C 95.7396 % 5.99 C
178 27-01-2018 00:00:00 4.73299 C 95.1771 % 4.03 C
179 28-01-2018 00:00:00 7.29028 C 89.6285 % 5.7 C
180 29-01-2018 00:00:00 9.82882 C 85.7674 % 7.56 C
181 30-01-2018 00:00:00 5.41111 C 90.5104 % 3.99 C
182 31-01-2018 00:00:00 7.52153 C 91.0938 % 6.16 C
183 01-02-2018 00:00:00 3.10243 C 90.1632 % 1.65 C
184 02-02-2018 00:00:00 3.41285 C 90.8958 % 2.07 C
185 03-02-2018 00:00:00 3.47118 C 87.7292 % 1.63 C
186 04-02-2018 00:00:00 1.1434 C 87.0208 % -0.77 C
187 05-02-2018 00:00:00 0.32431 C 82.9236 % -2.23 C
188 06-02-2018 00:00:00 -0.78056 C 89.0174 % -2.36 C
189 07-02-2018 00:00:00 -0.06111 C 91.5799 % -1.26 C
190 08-02-2018 00:00:00 -2.18819 C 88.7396 % -3.79 C
191 09-02-2018 00:00:00 -1.96007 C 92.3854 % -3.03 C
192 10-02-2018 00:00:00 2.22257 C 88.0660 % 0.46 C
193 11-02-2018 00:00:00 3.32535 C 86.3333 % 1.27 C
194 12-02-2018 00:00:00 2.1059 C 85.9479 % 0.01 C
195 13-02-2018 00:00:00 -0.32674 C 85.2257 % -2.5 C
196 14-02-2018 00:00:00 -1.52222 C 83.5069 % -3.95 C
197 15-02-2018 00:00:00 1.83299 C 89.2535 % 0.26 C
198 16-02-2018 00:00:00 2.01597 C 96.2500 % 1.48 C
199 17-02-2018 00:00:00 0.40521 C 93.6354 % -0.5 C
200 18-02-2018 00:00:00 -1.01701 C 92.6701 % -2.05 C
Sensor: Nr:Datum:Temp:Feuchte:Taupunkt:
Aussen-T/F 201 19-02-2018 00:00:00 1.11667 C 88.7049 % -0.53 C
202 20-02-2018 00:00:00 0.74271 C 87.0313 % -1.16 C
203 21-02-2018 00:00:00 1.21181 C 77.1493 % -2.34 C
204 22-02-2018 00:00:00 -0.03507 C 74.0938 % -4.09 C
205 23-02-2018 00:00:00 -0.725 C 62.2674 % -7.03 C
206 24-02-2018 00:00:00 -1.57049 C 63.0625 % -7.67 C
207 25-02-2018 00:00:00 -2.70729 C 52.6701 % -11.03 C
208 26-02-2018 00:00:00 -4.18854 C 66.9375 % -9.4 C
209 27-02-2018 00:00:00 -6.00417 C 70.8264 % -10.43 C
210 28-02-2018 00:00:00 -6.7066 C 65.9757 % -11.99 C
211 01-03-2018 00:00:00 -2.91424 C 54.5035 % -10.79 C
212 02-03-2018 00:00:00 -2.40208 C 62.9826 % -8.48 C
213 03-03-2018 00:00:00 -0.40937 C 89.6736 % -1.89 C
214 04-03-2018 00:00:00 4.02986 C 90.9965 % 2.7 C
215 05-03-2018 00:00:00 5.96979 C 85.9965 % 3.81 C
216 06-03-2018 00:00:00 4.90694 C 86.9583 % 2.92 C
217 07-03-2018 00:00:00 5.39792 C 90.0556 % 3.9 C
218 08-03-2018 00:00:00 6.19653 C 83.8368 % 3.67 C
219 09-03-2018 00:00:00 5.56528 C 93.9514 % 4.67 C
220 10-03-2018 00:00:00 10.03125 C 92.4792 % 8.87 C
221 11-03-2018 00:00:00 10.51493 C 91.3854 % 9.17 C
222 12-03-2018 00:00:00 9.7 C 90.2813 % 8.19 C
223 13-03-2018 00:00:00 7.76667 C 88.1215 % 5.93 C
224 14-03-2018 00:00:00 6.86458 C 83.6076 % 4.29 C
225 15-03-2018 00:00:00 6.40382 C 83.6319 % 3.84 C
Sensor: Nr:Datum:Temp:Feuchte:Taupunkt:
Aussen-T/F 226 16-03-2018 00:00:00 7.64097 C 94.7813 % 6.86 C
227 17-03-2018 00:00:00 -0.44516 C 83.0573 % -2.96 C
228 18-03-2018 00:00:00 -1.64028 C 75.3299 % -5.42 C
229 19-03-2018 00:00:00 -0.54479 C 65.7778 % -6.15 C
230 20-03-2018 00:00:00 0.29653 C 73.5035 % -3.87 C
231 21-03-2018 00:00:00 1.2059 C 76.4132 % -2.47 C
232 22-03-2018 00:00:00 3.06319 C 89.6667 % 1.54 C
233 23-03-2018 00:00:00 6.14028 C 89.0799 % 4.48 C
234 24-03-2018 00:00:00 5.20069 C 79.8715 % 2.02 C
235 25-03-2018 00:00:00 5.42862 C 76.5217 % 1.64 C
236 26-03-2018 00:00:00 7.61146 C 73.0313 % 3.1 C
237 27-03-2018 00:00:00 5.82222 C 83.6181 % 3.27 C
238 28-03-2018 00:00:00 8.50799 C 92.0278 % 7.29 C
239 29-03-2018 00:00:00 7.11424 C 75.6701 % 3.12 C
240 30-03-2018 00:00:00 6.82813 C 81.6910 % 3.92 C
241 31-03-2018 00:00:00 8.09792 C 78.7083 % 4.63 C
242 01-04-2018 00:00:00 7.66979 C 81.5451 % 4.72 C
243 02-04-2018 00:00:00 8.78611 C 74.8715 % 4.58 C
244 03-04-2018 00:00:00 13.35 C 67.7257 % 7.51 C
245 04-04-2018 00:00:00 11.17187 C 85.0486 % 8.76 C
246 05-04-2018 00:00:00 8.16042 C 84.2049 % 5.66 C
247 06-04-2018 00:00:00 6.97187 C 72.9167 % 2.46 C
248 07-04-2018 00:00:00 12.50035 C 66.5174 % 6.44 C
249 08-04-2018 00:00:00 14.90417 C 67.3368 % 8.91 C
250 09-04-2018 00:00:00 13.73333 C 72.7188 % 8.93 C
Sensor: Nr:Datum:Temp:Feuchte:Taupunkt:
Aussen-T/F 251 10-04-2018 00:00:00 13.3816 C 78.1875 % 9.66 C
252 11-04-2018 00:00:00 11.50035 C 87.5035 % 9.5 C
253 12-04-2018 00:00:00 13.06493 C 80.5000 % 9.79 C
254 13-04-2018 00:00:00 10.32188 C 88.1458 % 8.45 C
255 14-04-2018 00:00:00 13.08403 C 76.3056 % 9.01 C
256 15-04-2018 00:00:00 14.37465 C 81.8542 % 11.32 C
257 16-04-2018 00:00:00 13.42882 C 78.5417 % 9.78 C
258 17-04-2018 00:00:00 13.72569 C 74.7569 % 9.33 C
259 18-04-2018 00:00:00 15.73264 C 69.7882 % 10.23 C
260 19-04-2018 00:00:00 17.21806 C 66.2847 % 10.88 C
261 20-04-2018 00:00:00 17.08681 C 67.8229 % 11.1 C
262 21-04-2018 00:00:00 18.09931 C 71.2639 % 12.82 C
263 22-04-2018 00:00:00 18.53681 C 73.1042 % 13.63 C
264 23-04-2018 00:00:00 18.01181 C 70.6181 % 12.6 C
265 24-04-2018 00:00:00 14.03854 C 72.5938 % 9.2 C
266 25-04-2018 00:00:00 13.47917 C 75.5694 % 9.25 C
267 26-04-2018 00:00:00 11.09167 C 65.0868 % 4.79 C
268 27-04-2018 00:00:00 11.96181 C 67.8333 % 6.21 C
269 28-04-2018 00:00:00 12.62917 C 72.8854 % 7.9 C
270 29-04-2018 00:00:00 14.24792 C 85.8194 % 11.91 C
271 30-04-2018 00:00:00 13.44931 C 77.7604 % 9.65 C
272 01-05-2018 00:00:00 9.59063 C 69.6354 % 4.32 C
273 02-05-2018 00:00:00 9.44549 C 75.6910 % 5.38 C
274 03-05-2018 00:00:00 12.35347 C 68.5729 % 6.74 C
275 04-05-2018 00:00:00 13.14618 C 65.4722 % 6.83 C
Sensor: Nr:Datum:Temp:Feuchte:Taupunkt:
Aussen-T/F 276 05-05-2018 00:00:00 15.50764 C 61.2708 % 8.09 C
277 06-05-2018 00:00:00 17.0059 C 57.6563 % 8.6 C
278 07-05-2018 00:00:00 17.60312 C 61.7674 % 10.19 C
279 08-05-2018 00:00:00 18.08264 C 62.5556 % 10.83 C
280 09-05-2018 00:00:00 17.125 C 71.3160 % 11.89 C
281 10-05-2018 00:00:00 14.09271 C 87.0729 % 11.98 C
282 11-05-2018 00:00:00 14.47951 C 77.2778 % 10.55 C
283 12-05-2018 00:00:00 16.39236 C 75.1597 % 11.99 C
284 13-05-2018 00:00:00 14.62278 C 93.1317 % 13.53 C
285 14-05-2018 00:00:00 16.77361 C 89.0556 % 14.96 C
286 15-05-2018 00:00:00 15.91597 C 75.1875 % 11.53 C
287 16-05-2018 00:00:00 15.4941 C 83.2118 % 12.66 C
288 17-05-2018 00:00:00 13.78333 C 73.6285 % 9.16 C
289 18-05-2018 00:00:00 12.14792 C 74.4757 % 7.75 C
290 19-05-2018 00:00:00 13.63299 C 73.7118 % 9.03 C
291 20-05-2018 00:00:00 14.00278 C 84.2917 % 11.4 C
292 21-05-2018 00:00:00 17.43819 C 78.1806 % 13.6 C
293 22-05-2018 00:00:00 16.97917 C 82.6944 % 14.02 C
294 23-05-2018 00:00:00 17.30243 C 88.5104 % 15.39 C
295 24-05-2018 00:00:00 17.125 C 87.8507 % 15.1 C
296 25-05-2018 00:00:00 19.81944 C 80.2535 % 16.32 C
297 26-05-2018 00:00:00 20.84826 C 76.3958 % 16.54 C
298 27-05-2018 00:00:00 20.3191 C 81.4236 % 17.03 C
299 28-05-2018 00:00:00 21.47083 C 81.6424 % 18.2 C
300 29-05-2018 00:00:00 20.77292 C 85.9514 % 18.34 C
Sensor: Nr:Datum:Temp:Feuchte:Taupunkt:
Aussen-T/F 301 30-05-2018 00:00:00 21.53403 C 77.5799 % 17.45 C
302 31-05-2018 00:00:00 22.62083 C 74.5313 % 17.86 C
303 01-06-2018 00:00:00 19.10729 C 88.6667 % 17.19 C
304 02-06-2018 00:00:00 19.22917 C 81.5243 % 15.99 C
305 03-06-2018 00:00:00 19.42708 C 77.5903 % 15.41 C
306 04-06-2018 00:00:00 20.95938 C 74.2257 % 16.2 C
307 05-06-2018 00:00:00 20.70035 C 77.2569 % 16.58 C
308 06-06-2018 00:00:00 21.09375 C 74.2222 % 16.33 C
309 07-06-2018 00:00:00 21.15174 C 80.5868 % 17.68 C
310 08-06-2018 00:00:00 20.94375 C 84.2361 % 18.18 C
311 09-06-2018 00:00:00 21.9125 C 83.9896 % 19.08 C
312 10-06-2018 00:00:00 21.38239 C 86.1831 % 18.98 C
313 11-06-2018 00:00:00 19.19444 C 93.4549 % 18.11 C
314 12-06-2018 00:00:00 16.41979 C 90.3194 % 14.83 C
315 13-06-2018 00:00:00 14.8941 C 79.6285 % 11.41 C
316 14-06-2018 00:00:00 14.94132 C 80.6806 % 11.65 C
317 15-06-2018 00:00:00 17.84236 C 88.0243 % 15.83 C
318 16-06-2018 00:00:00 19.99306 C 78.6493 % 16.17 C
319 17-06-2018 00:00:00 17.94167 C 75.1979 % 13.49 C
320 18-06-2018 00:00:00 17.81667 C 77.9757 % 13.93 C
321 19-06-2018 00:00:00 18.89201 C 84.5799 % 16.24 C
322 20-06-2018 00:00:00 23.07639 C 72.0069 % 17.75 C
323 21-06-2018 00:00:00 17.92639 C 69.4514 % 12.26 C
324 22-06-2018 00:00:00 13.74097 C 68.4549 % 8.04 C
325 23-06-2018 00:00:00 13.76424 C 76.4514 % 9.7 C
Sensor: Nr:Datum:Temp:Feuchte:Taupunkt:
Aussen-T/F 326 24-06-2018 00:00:00 15.88264 C 72.8299 % 11.02 C
327 25-06-2018 00:00:00 17.09201 C 78.1806 % 13.26 C
328 26-06-2018 00:00:00 17.67396 C 74.6806 % 13.13 C
329 27-06-2018 00:00:00 19.15694 C 67.6979 % 13.05 C
330 28-06-2018 00:00:00 20.71076 C 61.1806 % 12.97 C
331 29-06-2018 00:00:00 24.11424 C 56.0451 % 14.8 C
332 30-06-2018 00:00:00 22.06215 C 56.9201 % 13.13 C
333 01-07-2018 00:00:00 20.86597 C 42.7396 % 7.74 C
334 02-07-2018 00:00:00 20.44792 C 45.9861 % 8.44 C
335 03-07-2018 00:00:00 20.73299 C 50.1319 % 9.98 C
336 04-07-2018 00:00:00 18.84167 C 80.7778 % 15.47 C
337 05-07-2018 00:00:00 19.41111 C 88.5799 % 17.48 C
338 06-07-2018 00:00:00 20.03056 C 75.7014 % 15.61 C
339 07-07-2018 00:00:00 20.66701 C 67.2326 % 14.38 C
340 08-07-2018 00:00:00 19.71181 C 58.3160 % 11.3 C
341 09-07-2018 00:00:00 19.32361 C 67.3299 % 13.12 C
342 10-07-2018 00:00:00 17.13715 C 73.0729 % 12.28 C
343 11-07-2018 00:00:00 16.10729 C 82.2396 % 13.08 C
344 12-07-2018 00:00:00 19.59688 C 80.3924 % 16.13 C
345 13-07-2018 00:00:00 19.71166 C 77.4240 % 15.65 C
346 14-07-2018 00:00:00 21.51493 C 67.9236 % 15.34 C
347 15-07-2018 00:00:00 21.63021 C 64.0521 % 14.54 C
348 16-07-2018 00:00:00 22.30868 C 61.5347 % 14.56 C
349 17-07-2018 00:00:00 21.01771 C 65.8507 % 14.39 C
350 18-07-2018 00:00:00 20.29479 C 65.8750 % 13.71 C
Sensor: Nr:Datum:Temp:Feuchte:Taupunkt:
Aussen-T/F 351 19-07-2018 00:00:00 20.92431 C 60.5069 % 13 C
352 20-07-2018 00:00:00 21.5559 C 61.6319 % 13.88 C
353 21-07-2018 00:00:00 20.6125 C 77.3958 % 16.52 C
354 22-07-2018 00:00:00 21.61458 C 70.0486 % 15.92 C
355 23-07-2018 00:00:00 22.37917 C 67.0868 % 15.97 C
356 24-07-2018 00:00:00 23.70278 C 63.7465 % 16.43 C
357 25-07-2018 00:00:00 25.50069 C 57.3160 % 16.44 C
358 26-07-2018 00:00:00 27.18785 C 54.2326 % 17.14 C
359 27-07-2018 00:00:00 26.11146 C 50.4861 % 15.03 C
360 28-07-2018 00:00:00 21.97743 C 76.3924 % 17.63 C
361 29-07-2018 00:00:00 23.50521 C 66.0451 % 16.8 C
362 30-07-2018 00:00:00 24.29931 C 64.4410 % 17.16 C
363 31-07-2018 00:00:00 25.46875 C 61.9722 % 17.65 C
364 01-08-2018 00:00:00 20.74271 C 87.4931 % 18.59 C
365 02-08-2018 00:00:00 23.73056 C 74.2257 % 18.87 C
366 03-08-2018 00:00:00 26.4684 C 61.0278 % 18.34 C
367 04-08-2018 00:00:00 26.38714 C 57.9821 % 17.45 C
368 05-08-2018 00:00:00 24.70486 C 59.6424 % 16.32 C
369 06-08-2018 00:00:00 24.16944 C 57.6563 % 15.29 C
370 07-08-2018 00:00:00 26.73646 C 55.5104 % 17.09 C
371 08-08-2018 00:00:00 25.29618 C 61.3021 % 17.31 C
372 09-08-2018 00:00:00 20.57778 C 82.7639 % 17.54 C
373 10-08-2018 00:00:00 18.35486 C 65.3924 % 11.76 C
374 11-08-2018 00:00:00 18.37083 C 59.8611 % 10.44 C
375 12-08-2018 00:00:00 18.15451 C 63.0729 % 11.02 C
Sensor: Nr:Datum:Temp:Feuchte:Taupunkt:
Aussen-T/F 376 13-08-2018 00:00:00 17.68854 C 81.8924 % 14.56 C
377 14-08-2018 00:00:00 18.53958 C 84.6563 % 15.91 C
378 15-08-2018 00:00:00 19.375 C 79.2465 % 15.69 C
379 16-08-2018 00:00:00 20.74444 C 71.2743 % 15.36 C
380 17-08-2018 00:00:00 19.75903 C 76.6632 % 15.54 C
381 18-08-2018 00:00:00 18.88785 C 68.7326 % 13.02 C
382 19-08-2018 00:00:00 20.30521 C 67.4132 % 14.07 C
383 20-08-2018 00:00:00 20.84444 C 73.5938 % 15.95 C
384 21-08-2018 00:00:00 21.96979 C 70.6528 % 16.39 C
385 22-08-2018 00:00:00 23.24757 C 65.7500 % 16.48 C
386 23-08-2018 00:00:00 22.88681 C 69.0660 % 16.91 C
387 24-08-2018 00:00:00 19.03368 C 65.5556 % 12.44 C
388 25-08-2018 00:00:00 14.525 C 69.8438 % 9.09 C
389 26-08-2018 00:00:00 13.80556 C 67.7882 % 7.96 C
390 27-08-2018 00:00:00 18.12604 C 70.1493 % 12.6 C
391 28-08-2018 00:00:00 18.12917 C 67.6632 % 12.06 C
392 29-08-2018 00:00:00 17.15556 C 80.1528 % 13.71 C
393 30-08-2018 00:00:00 17.22778 C 75.0799 % 12.78 C
394 31-08-2018 00:00:00 15.05521 C 72.2951 % 10.11 C
395 01-09-2018 00:00:00 14.30833 C 69.0799 % 8.72 C
396 02-09-2018 00:00:00 14.27188 C 76.5347 % 10.21 C
397 03-09-2018 00:00:00 18.05417 C 80.5556 % 14.66 C
398 04-09-2018 00:00:00 20.01736 C 79.3507 % 16.33 C
399 05-09-2018 00:00:00 20.91701 C 73.3229 % 15.97 C
400 06-09-2018 00:00:00 18.07014 C 87.7049 % 16 C
Sensor: Nr:Datum:Temp:Feuchte:Taupunkt:
Aussen-T/F 401 07-09-2018 00:00:00 15.72639 C 86.9479 % 13.56 C
402 08-09-2018 00:00:00 13.53889 C 76.5139 % 9.49 C
403 09-09-2018 00:00:00 16.94236 C 70.6667 % 11.58 C
404 10-09-2018 00:00:00 17.5 C 71.7396 % 12.34 C
405 11-09-2018 00:00:00 18.85868 C 70.4028 % 13.36 C
406 12-09-2018 00:00:00 19.08646 C 71.2882 % 13.77 C
407 13-09-2018 00:00:00 16.3625 C 85.6632 % 13.96 C
408 14-09-2018 00:00:00 16.95174 C 71.3056 % 11.73 C
409 15-09-2018 00:00:00 15.14028 C 70.3368 % 9.78 C
410 16-09-2018 00:00:00 14.7184 C 71.4063 % 9.6 C
411 17-09-2018 00:00:00 16.79306 C 68.7813 % 11.03 C
412 18-09-2018 00:00:00 19.05208 C 70.2292 % 13.51 C
413 19-09-2018 00:00:00 20.67951 C 71.7535 % 15.4 C
414 20-09-2018 00:00:00 19.17153 C 72.3785 % 14.09 C
415 21-09-2018 00:00:00 15.93472 C 78.7778 % 12.26 C
416 22-09-2018 00:00:00 12.7566 C 77.2465 % 8.88 C
417 23-09-2018 00:00:00 12.33056 C 94.4167 % 11.46 C
418 24-09-2018 00:00:00 9.92396 C 85.7674 % 7.66 C
419 25-09-2018 00:00:00 8.38785 C 85.7431 % 6.14 C
420 26-09-2018 00:00:00 8.82917 C 82.7153 % 6.06 C
421 27-09-2018 00:00:00 11.32708 C 83.9236 % 8.71 C
422 28-09-2018 00:00:00 10.18526 C 91.0982 % 8.8 C
423 29-09-2018 00:00:00 8.2941 C 81.8056 % 5.37 C
424 30-09-2018 00:00:00 7.9427 C 82.6726 % 5.18 C
425 01-10-2018 00:00:00 9.71701 C 81.2778 % 6.67 C
Sensor: Nr:Datum:Temp:Feuchte:Taupunkt:
Aussen-T/F 426 02-10-2018 00:00:00 9.17604 C 87.5625 % 7.22 C
427 03-10-2018 00:00:00 12.2809 C 82.0521 % 9.31 C
428 04-10-2018 00:00:00 9.78056 C 87.1875 % 7.75 C
429 05-10-2018 00:00:00 10.63021 C 88.2743 % 8.77 C
430 06-10-2018 00:00:00 12.7691 C 89.0000 % 11 C
431 07-10-2018 00:00:00 13.00243 C 89.0833 % 11.25 C
432 08-10-2018 00:00:00 10.50347 C 88.5521 % 8.69 C
433 09-10-2018 00:00:00 11.75035 C 91.4340 % 10.4 C
434 10-10-2018 00:00:00 13.21285 C 90.3646 % 11.67 C
435 11-10-2018 00:00:00 14.21701 C 88.2674 % 12.31 C
436 12-10-2018 00:00:00 15.87882 C 86.2604 % 13.59 C
437 13-10-2018 00:00:00 15.57986 C 84.2257 % 12.93 C
438 14-10-2018 00:00:00 14.79965 C 83.0174 % 11.95 C
439 15-10-2018 00:00:00 13.825 C 84.5903 % 11.28 C
440 16-10-2018 00:00:00 12.87292 C 86.4653 % 10.67 C
441 17-10-2018 00:00:00 12.82847 C 88.3368 % 10.95 C
442 18-10-2018 00:00:00 14.04618 C 88.4722 % 12.17 C
443 19-10-2018 00:00:00 12.08785 C 87.8889 % 10.14 C
444 20-10-2018 00:00:00 11.03542 C 86.2431 % 8.83 C
445 21-10-2018 00:00:00 7.3066 C 91.4479 % 6.01 C
446 22-10-2018 00:00:00 7.67014 C 90.5417 % 6.22 C
447 23-10-2018 00:00:00 9.04306 C 84.6944 % 6.61 C
448 24-10-2018 00:00:00 14.07604 C 86.3472 % 11.83 C
449 25-10-2018 00:00:00 12.94722 C 83.3368 % 10.19 C
450 26-10-2018 00:00:00 10.21354 C 80.8299 % 7.07 C
Sensor: Nr:Datum:Temp:Feuchte:Taupunkt:
Aussen-T/F 451 27-10-2018 00:00:00 6.27118 C 90.9340 % 4.9 C
452 28-10-2018 00:00:00 5.67778 C 83.1424 % 3.05 C
453 29-10-2018 00:00:00 6.43264 C 84.8160 % 4.07 C
454 30-10-2018 00:00:00 6.2809 C 91.5868 % 5.02 C
455 31-10-2018 00:00:00 7.45382 C 86.8194 % 5.41 C
456 01-11-2018 00:00:00 6.13194 C 95.0799 % 5.4 C
457 02-11-2018 00:00:00 8.86597 C 94.0486 % 7.96 C
458 03-11-2018 00:00:00 3.50521 C 96.4549 % 3 C
459 04-11-2018 00:00:00 6.86007 C 95.2361 % 6.15 C
460 05-11-2018 00:00:00 10.39097 C 92.1042 % 9.17 C
461 06-11-2018 00:00:00 8.41806 C 95.6667 % 7.77 C
462 07-11-2018 00:00:00 9.32118 C 92.4167 % 8.16 C
463 08-11-2018 00:00:00 10.425 C 89.0660 % 8.7 C
464 09-11-2018 00:00:00 9.62604 C 92.9861 % 8.55 C
465 10-11-2018 00:00:00 11.90347 C 90.1250 % 10.34 C
466 11-11-2018 00:00:00 12.04618 C 90.5972 % 10.56 C
467 12-11-2018 00:00:00 13.70069 C 90.0278 % 12.1 C
468 13-11-2018 00:00:00 10.46076 C 92.4965 % 9.3 C
469 14-11-2018 00:00:00 6.18264 C 96.5938 % 5.68 C
470 15-11-2018 00:00:00 6.9816 C 91.5660 % 5.71 C
471 16-11-2018 00:00:00 5.92778 C 89.7882 % 4.38 C
472 17-11-2018 00:00:00 2.75417 C 88.6667 % 1.07 C
473 18-11-2018 00:00:00 1.8566 C 79.8333 % -1.25 C
474 19-11-2018 00:00:00 3.57014 C 81.2153 % 0.66 C
475 20-11-2018 00:00:00 3.50972 C 80.1910 % 0.43 C
Sensor: Nr:Datum:Temp:Feuchte:Taupunkt:
Aussen-T/F 476 21-11-2018 00:00:00 2.50312 C 88.6979 % 0.83 C
477 22-11-2018 00:00:00 2.91458 C 88.0903 % 1.14 C
478 23-11-2018 00:00:00 0.10868 C 95.3785 % -0.54 C
479 24-11-2018 00:00:00 4.74792 C 96.2674 % 4.21 C
480 25-11-2018 00:00:00 5.98785 C 95.8785 % 5.38 C
481 26-11-2018 00:00:00 6.65625 C 87.8958 % 4.8 C
482 27-11-2018 00:00:00 4.12465 C 83.8368 % 1.64 C
483 28-11-2018 00:00:00 3.7 C 91.6667 % 2.47 C
484 29-11-2018 00:00:00 5.67875 C 92.7735 % 4.6 C
485 30-11-2018 00:00:00 7.44514 C 94.6875 % 6.65 C
486 01-12-2018 00:00:00 7.48993 C 91.5833 % 6.21 C
487 02-12-2018 00:00:00 11.28056 C 93.0868 % 10.21 C
488 03-12-2018 00:00:00 11.76701 C 95.7708 % 11.11 C
489 04-12-2018 00:00:00 6.48715 C 90.9653 % 5.12 C
490 05-12-2018 00:00:00 3.60729 C 96.1806 % 3.06 C
491 06-12-2018 00:00:00 9.76042 C 93.8924 % 8.83 C
492 07-12-2018 00:00:00 11.22882 C 86.6667 % 9.09 C
493 08-12-2018 00:00:00 7.97361 C 88.5035 % 6.19 C
494 09-12-2018 00:00:00 8.02544 C 87.9756 % 6.16 C
495 10-12-2018 00:00:00 4.96771 C 91.2639 % 3.67 C
496 11-12-2018 00:00:00 3.84375 C 93.7118 % 2.93 C
497 12-12-2018 00:00:00 2.70801 C 95.4948 % 2.06 C
498 13-12-2018 00:00:00 1.36181 C 87.4618 % -0.49 C
499 14-12-2018 00:00:00 1.15521 C 77.4757 % -2.33 C
500 15-12-2018 00:00:00 0.62683 C 78.6202 % -2.65 C
Sensor: Nr:Datum:Temp:Feuchte:Taupunkt:
Aussen-T/F 501 16-12-2018 00:00:00 0.77743 C 90.5382 % -0.59 C
502 17-12-2018 00:00:00 4.19722 C 94.8194 % 3.44 C
503 18-12-2018 00:00:00 5.08229 C 90.2917 % 3.63 C
504 19-12-2018 00:00:00 6.54495 C 88.8537 % 4.84 C
505 20-12-2018 00:00:00 7.58741 C 89.6818 % 6 C
506 21-12-2018 00:00:00 10.78507 C 86.4514 % 8.62 C
507 22-12-2018 00:00:00 9.94266 C 85.9091 % 7.7 C
508 23-12-2018 00:00:00 8.60868 C 93.6563 % 7.65 C
509 24-12-2018 00:00:00 4.88924 C 90.8750 % 3.53 C
510 25-12-2018 00:00:00 1.85208 C 93.1667 % 0.87 C
511 26-12-2018 00:00:00 -0.91736 C 95.5035 % -1.54 C
512 27-12-2018 00:00:00 0.08125 C 95.8090 % -0.51 C
513 28-12-2018 00:00:00 0.225 C 94.9375 % -0.49 C
514 29-12-2018 00:00:00 2.70972 C 93.3576 % 1.75 C
515 30-12-2018 00:00:00 7.50313 C 87.4271 % 5.55 C
516 31-12-2018 00:00:00 7.59271 C 96.4201 % 7.06 C
517 01-01-2019 00:00:00 7.09271 C 92.0833 % 5.9 C
518 02-01-2019 00:00:00 3.70104 C 82.7847 % 1.05 C
519 03-01-2019 00:00:00 2.03715 C 93.0000 % 1.03 C
520 04-01-2019 00:00:00 3.13785 C 91.9826 % 1.96 C
521 05-01-2019 00:00:00 5.92632 C 93.3825 % 4.94 C
522 06-01-2019 00:00:00 5.76944 C 91.7674 % 4.54 C
523 07-01-2019 00:00:00 5.50417 C 89.8819 % 3.98 C
524 08-01-2019 00:00:00 6.62222 C 85.9688 % 4.45 C
525 09-01-2019 00:00:00 3.90486 C 83.8368 % 1.43 C
Sensor: Nr:Datum:Temp:Feuchte:Taupunkt:
Aussen-T/F 526 10-01-2019 00:00:00 2.05694 C 83.7708 % -0.39 C
527 11-01-2019 00:00:00 2.82847 C 94.7882 % 2.08 C
528 12-01-2019 00:00:00 5.96702 C 92.9734 % 4.92 C
529 13-01-2019 00:00:00 7.73715 C 94.1493 % 6.86 C
530 14-01-2019 00:00:00 5.07083 C 89.5625 % 3.5 C
531 15-01-2019 00:00:00 4.78854 C 89.1007 % 3.15 C
532 16-01-2019 00:00:00 5.27187 C 85.4861 % 3.04 C
533 17-01-2019 00:00:00 5.0066 C 87.3924 % 3.09 C
534 18-01-2019 00:00:00 0.77569 C 91.8611 % -0.39 C
535 19-01-2019 00:00:00 -2.72396 C 93.3299 % -3.65 C
536 20-01-2019 00:00:00 -4.97187 C 92.8854 % -5.94 C
537 21-01-2019 00:00:00 -6.20972 C 93.8472 % -7.04 C
538 22-01-2019 00:00:00 -4.96667 C 92.0938 % -6.05 C
539 23-01-2019 00:00:00 -1.57743 C 89.4028 % -3.09 C
540 24-01-2019 00:00:00 -1.91736 C 83.8854 % -4.27 C
541 25-01-2019 00:00:00 0.28403 C 88.1354 % -1.44 C
542 26-01-2019 00:00:00 4.48229 C 92.3229 % 3.35 C
543 27-01-2019 00:00:00 5.94583 C 90.0868 % 4.45 C
544 28-01-2019 00:00:00 3.17118 C 90.8854 % 1.83 C
545 29-01-2019 00:00:00 1.73021 C 89.6875 % 0.22 C
546 30-01-2019 00:00:00 0.45972 C 93.3264 % -0.49 C
547 31-01-2019 00:00:00 -0.09826 C 94.7188 % -0.84 C
548 01-02-2019 00:00:00 1.74826 C 95.6389 % 1.13 C
549 02-02-2019 00:00:00 2.46701 C 96.8611 % 2.02 C
550 03-02-2019 00:00:00 2.7 C 88.6910 % 1.02 C
Sensor: Nr:Datum:Temp:Feuchte:Taupunkt:
Aussen-T/F 551 04-02-2019 00:00:00 1.83229 C 87.0625 % -0.09 C
552 05-02-2019 00:00:00 4.34375 C 81.1771 % 1.41 C
553 06-02-2019 00:00:00 1.17639 C 89.9688 % -0.28 C
554 07-02-2019 00:00:00 5.09549 C 88.0833 % 3.29 C
555 08-02-2019 00:00:00 7.42604 C 83.5417 % 4.83 C
556 09-02-2019 00:00:00 8.6309 C 79.8056 % 5.35 C
557 10-02-2019 00:00:00 7.96076 C 88.4965 % 6.18 C
558 11-02-2019 00:00:00 4.86736 C 86.4931 % 2.81 C
559 12-02-2019 00:00:00 3.71597 C 86.6563 % 1.7 C
560 13-02-2019 00:00:00 1.77951 C 91.5833 % 0.56 C
561 14-02-2019 00:00:00 0.77431 C 92.7674 % -0.26 C
562 15-02-2019 00:00:00 2.33854 C 89.2917 % 0.76 C
563 16-02-2019 00:00:00 3.375 C 88.6319 % 1.68 C
564 17-02-2019 00:00:00 3.45451 C 89.9236 % 1.96 C
565 18-02-2019 00:00:00 3.69653 C 86.8368 % 1.71 C
566 19-02-2019 00:00:00 5.85868 C 87.7118 % 3.98 C
567 20-02-2019 00:00:00 4.70694 C 89.0660 % 3.06 C
568 21-02-2019 00:00:00 6.3625 C 90.0174 % 4.85 C
569 22-02-2019 00:00:00 9.91111 C 88.0347 % 8.03 C
570 23-02-2019 00:00:00 5.41076 C 78.7188 % 2.02 C
571 24-02-2019 00:00:00 3.39271 C 73.0729 % -0.96 C
572 25-02-2019 00:00:00 5.05139 C 74.1181 % 0.83 C
573 26-02-2019 00:00:00 6.18646 C 80.1042 % 3.02 C
574 27-02-2019 00:00:00 6.63576 C 79.5313 % 3.36 C
575 28-02-2019 00:00:00 8.81701 C 78.9201 % 5.37 C
Sensor: Nr:Datum:Temp:Feuchte:Taupunkt:
Aussen-T/F 576 01-03-2019 00:00:00 8.12708 C 91.9583 % 6.9 C
577 02-03-2019 00:00:00 8.64236 C 85.0868 % 6.28 C
578 03-03-2019 00:00:00 11.11319 C 80.0069 % 7.8 C
579 04-03-2019 00:00:00 9.71875 C 78.3854 % 6.15 C
580 05-03-2019 00:00:00 6.87396 C 81.6181 % 3.95 C
581 06-03-2019 00:00:00 10.01944 C 78.9792 % 6.55 C
582 07-03-2019 00:00:00 10.20729 C 79.2014 % 6.77 C
583 08-03-2019 00:00:00 8.18854 C 79.1181 % 4.79 C
584 09-03-2019 00:00:00 10.36875 C 76.7188 % 6.46 C
585 10-03-2019 00:00:00 9.55694 C 76.8507 % 5.7 C
586 11-03-2019 00:00:00 4.7934 C 79.8264 % 1.61 C
587 12-03-2019 00:00:00 6.61563 C 70.1319 % 1.57 C
588 13-03-2019 00:00:00 6.20382 C 82.8472 % 3.51 C
589 14-03-2019 00:00:00 7.03611 C 87.2674 % 5.07 C
590 15-03-2019 00:00:00 10.13993 C 87.2014 % 8.11 C
591 16-03-2019 00:00:00 10.23472 C 85.5417 % 7.92 C
592 17-03-2019 00:00:00 8.66319 C 77.8160 % 5.02 C
593 18-03-2019 00:00:00 4.96458 C 85.1458 % 2.68 C
594 19-03-2019 00:00:00 3.83715 C 80.5000 % 0.8 C
595 20-03-2019 00:00:00 5.47951 C 77.2882 % 1.83 C
596 21-03-2019 00:00:00 7.53194 C 73.6076 % 3.13 C
597 22-03-2019 00:00:00 9.15799 C 72.1563 % 4.41 C
598 23-03-2019 00:00:00 6.18576 C 87.5035 % 4.27 C
599 24-03-2019 00:00:00 6.4583 C 83.7380 % 3.91 C
600 25-03-2019 00:00:00 5.13299 C 86.0243 % 2.99 C
Sensor: Nr:Datum:Temp:Feuchte:Taupunkt:
Aussen-T/F 601 26-03-2019 00:00:00 6.64792 C 81.5799 % 3.73 C
602 27-03-2019 00:00:00 6.81528 C 80.7535 % 3.75 C
603 28-03-2019 00:00:00 7.32535 C 81.7951 % 4.43 C
604 29-03-2019 00:00:00 8.96493 C 79.2708 % 5.57 C
605 30-03-2019 00:00:00 10.50104 C 72.7500 % 5.82 C
606 31-03-2019 00:00:00 10.31594 C 80.1486 % 7.05 C
607 01-04-2019 00:00:00 9.41771 C 75.2326 % 5.26 C
608 02-04-2019 00:00:00 10.74375 C 76.1979 % 6.73 C
609 03-04-2019 00:00:00 8.37083 C 86.8889 % 6.32 C
610 04-04-2019 00:00:00 6.05799 C 93.2604 % 5.05 C
611 05-04-2019 00:00:00 6.32535 C 92.0556 % 5.13 C
612 06-04-2019 00:00:00 10.20313 C 83.4549 % 7.53 C
613 07-04-2019 00:00:00 12.02083 C 75.0764 % 7.75 C
614 08-04-2019 00:00:00 12.69757 C 85.2188 % 10.28 C
615 09-04-2019 00:00:00 12.23472 C 88.4201 % 10.38 C
616 10-04-2019 00:00:00 10.80035 C 65.8750 % 4.69 C
617 11-04-2019 00:00:00 6.94306 C 60.9931 % -0.05 C
618 12-04-2019 00:00:00 5.01528 C 58.9653 % -2.32 C
619 13-04-2019 00:00:00 3.85556 C 75.6458 % -0.04 C
620 14-04-2019 00:00:00 5.53576 C 76.5590 % 1.75 C
621 15-04-2019 00:00:00 10.42187 C 69.5868 % 5.11 C
622 16-04-2019 00:00:00 11.20417 C 67.0417 % 5.32 C
623 17-04-2019 00:00:00 12.74861 C 83.8576 % 10.09 C
624 18-04-2019 00:00:00 14.16528 C 65.0556 % 7.7 C
625 19-04-2019 00:00:00 15.41285 C 56.3681 % 6.78 C
Sensor: Nr:Datum:Temp:Feuchte:Taupunkt:
Aussen-T/F 626 20-04-2019 00:00:00 14.87153 C 61.3125 % 7.5 C
627 21-04-2019 00:00:00 15.62813 C 58.4688 % 7.52 C
628 22-04-2019 00:00:00 14.99375 C 59.5382 % 7.19 C
629 23-04-2019 00:00:00 15.15903 C 61.0799 % 7.72 C
630 24-04-2019 00:00:00 15.11424 C 73.1042 % 10.34 C
631 25-04-2019 00:00:00 13.28785 C 78.5139 % 9.64 C
632 26-04-2019 00:00:00 11.86806 C 83.8681 % 9.23 C
633 27-04-2019 00:00:00 9.34688 C 89.7569 % 7.75 C
634 28-04-2019 00:00:00 8.50208 C 83.0000 % 5.79 C
635 29-04-2019 00:00:00 8.56736 C 84.4653 % 6.1 C
636 30-04-2019 00:00:00 14.05278 C 68.6979 % 8.39 C
637 01-05-2019 00:00:00 12.7816 C 76.3333 % 8.73 C
638 02-05-2019 00:00:00 11.4566 C 80.2535 % 8.18 C
639 03-05-2019 00:00:00 11.00208 C 73.3056 % 6.42 C
640 04-05-2019 00:00:00 6.36493 C 84.2014 % 3.9 C
641 05-05-2019 00:00:00 6.67882 C 81.4167 % 3.73 C
642 06-05-2019 00:00:00 7.62465 C 77.0660 % 3.87 C
643 07-05-2019 00:00:00 9.6066 C 73.7396 % 5.16 C
644 08-05-2019 00:00:00 9.41667 C 88.5972 % 7.63 C
645 09-05-2019 00:00:00 11.20938 C 88.9410 % 9.46 C
646 10-05-2019 00:00:00 12.49306 C 77.5833 % 8.69 C
647 11-05-2019 00:00:00 10.05833 C 93.1111 % 9 C
648 12-05-2019 00:00:00 9.40625 C 72.7778 % 4.78 C
649 13-05-2019 00:00:00 9.96736 C 61.6701 % 2.96 C
650 14-05-2019 00:00:00 9.58299 C 64.4479 % 3.22 C
Sensor: Nr:Datum:Temp:Feuchte:Taupunkt:
Aussen-T/F 651 15-05-2019 00:00:00 9.79896 C 60.9583 % 2.64 C
652 16-05-2019 00:00:00 10.83854 C 70.4271 % 5.68 C
653 17-05-2019 00:00:00 11.60069 C 89.4896 % 9.93 C
654 18-05-2019 00:00:00 14.44306 C 85.5035 % 12.04 C
655 19-05-2019 00:00:00 15.85694 C 83.5868 % 13.08 C
656 20-05-2019 00:00:00 13.90347 C 89.8125 % 12.26 C
657 21-05-2019 00:00:00 12.49722 C 93.0868 % 11.41 C
658 22-05-2019 00:00:00 13.38785 C 80.8681 % 10.17 C
659 23-05-2019 00:00:00 15.11875 C 74.1389 % 10.55 C
660 24-05-2019 00:00:00 16.93437 C 70.9271 % 11.63 C
661 25-05-2019 00:00:00 15.60035 C 67.4167 % 9.59 C
662 26-05-2019 00:00:00 15.92014 C 74.4549 % 11.39 C
663 27-05-2019 00:00:00 14.98924 C 90.8889 % 13.51 C
664 28-05-2019 00:00:00 13.95729 C 85.1146 % 11.5 C
665 29-05-2019 00:00:00 14.97951 C 68.2535 % 9.18 C
666 30-05-2019 00:00:00 15.62396 C 78.5069 % 11.9 C
667 31-05-2019 00:00:00 19.22674 C 74.1806 % 14.52 C
668 01-06-2019 00:00:00 19.98924 C 74.3090 % 15.28 C
669 02-06-2019 00:00:00 22.09028 C 70.5521 % 16.49 C
670 03-06-2019 00:00:00 20.85625 C 73.4583 % 15.94 C
671 04-06-2019 00:00:00 21.5059 C 73.6146 % 16.59 C
672 05-06-2019 00:00:00 23.45243 C 67.8507 % 17.17 C
673 06-06-2019 00:00:00 15.94271 C 78.5556 % 12.22 C
674 07-06-2019 00:00:00 15.6809 C 76.3646 % 11.54 C
675 08-06-2019 00:00:00 16.15243 C 62.7743 % 9.06 C
Sensor: Nr:Datum:Temp:Feuchte:Taupunkt:
Aussen-T/F 676 09-06-2019 00:00:00 16.23438 C 72.8542 % 11.36 C
677 10-06-2019 00:00:00 19.2684 C 73.8403 % 14.49 C
678 11-06-2019 00:00:00 17.19063 C 83.4826 % 14.37 C
679 12-06-2019 00:00:00 16.48854 C 82.3194 % 13.47 C
680 13-06-2019 00:00:00 15.92743 C 75.5694 % 11.62 C
681 14-06-2019 00:00:00 17.88507 C 82.6875 % 14.9 C
682 15-06-2019 00:00:00 19.62083 C 79.3646 % 15.95 C
683 16-06-2019 00:00:00 19.34479 C 71.4271 % 14.05 C
684 17-06-2019 00:00:00 18.93646 C 73.1111 % 14.02 C
685 18-06-2019 00:00:00 21.4625 C 72.7188 % 16.36 C
686 19-06-2019 00:00:00 22.17049 C 73.3125 % 17.17 C
687 20-06-2019 00:00:00 19.48229 C 80.3681 % 16.01 C
688 21-06-2019 00:00:00 18.55694 C 68.4306 % 12.64 C
689 22-06-2019 00:00:00 19.16771 C 69.5729 % 13.47 C
690 23-06-2019 00:00:00 21.78854 C 71.5521 % 16.42 C
691 24-06-2019 00:00:00 24.3809 C 68.9965 % 18.32 C
692 25-06-2019 00:00:00 26.30625 C 65.6458 % 19.36 C
693 26-06-2019 00:00:00 26.97257 C 66.5486 % 20.21 C
694 27-06-2019 00:00:00 24.42326 C 58.6910 % 15.81 C
695 28-06-2019 00:00:00 21.63368 C 60.1458 % 13.57 C
696 29-06-2019 00:00:00 24.00937 C 53.3750 % 13.95 C
697 30-06-2019 00:00:00 25.32014 C 62.4688 % 17.63 C
698 01-07-2019 00:00:00 22.68715 C 60.6875 % 14.7 C
699 02-07-2019 00:00:00 19.04306 C 61.0868 % 11.38 C
700 03-07-2019 00:00:00 17.43472 C 61.1146 % 9.87 C
Sensor: Nr:Datum:Temp:Feuchte:Taupunkt:
Aussen-T/F 701 04-07-2019 00:00:00 18.23021 C 56.4375 % 9.43 C
702 05-07-2019 00:00:00 20.73889 C 56.5486 % 11.8 C
703 06-07-2019 00:00:00 21.18681 C 61.5174 % 13.5 C
704 07-07-2019 00:00:00 17.74306 C 68.3819 % 11.85 C
705 08-07-2019 00:00:00 14.44931 C 70.9271 % 9.25 C
706 09-07-2019 00:00:00 15.40868 C 66.0868 % 9.11 C
707 10-07-2019 00:00:00 16.98854 C 57.9271 % 8.66 C
708 11-07-2019 00:00:00 17.76076 C 79.7500 % 14.22 C
709 12-07-2019 00:00:00 17.3375 C 92.0313 % 16.03 C
710 13-07-2019 00:00:00 17.99896 C 83.4549 % 15.15 C
711 14-07-2019 00:00:00 16.92569 C 75.5729 % 12.58 C
712 15-07-2019 00:00:00 16.34757 C 73.9826 % 11.7 C
713 16-07-2019 00:00:00 16.0375 C 75.3507 % 11.68 C
714 17-07-2019 00:00:00 17.21979 C 76.2847 % 13.01 C
715 18-07-2019 00:00:00 19.06944 C 74.1424 % 14.36 C
716 19-07-2019 00:00:00 20.2441 C 77.7257 % 16.23 C
717 20-07-2019 00:00:00 21.61736 C 75.2292 % 17.04 C
718 21-07-2019 00:00:00 21.96076 C 68.7569 % 15.96 C
719 22-07-2019 00:00:00 22.29861 C 66.0139 % 15.64 C
720 23-07-2019 00:00:00 25.05139 C 61.5764 % 17.15 C
721 24-07-2019 00:00:00 27.05069 C 57.6528 % 17.98 C
722 25-07-2019 00:00:00 28.69028 C 53.5729 % 18.33 C
723 26-07-2019 00:00:00 27.21528 C 56.0694 % 17.69 C
724 27-07-2019 00:00:00 23.20069 C 79.9340 % 19.54 C
725 28-07-2019 00:00:00 19.86597 C 90.5938 % 18.28 C
Sensor: Nr:Datum:Temp:Feuchte:Taupunkt:
Aussen-T/F 726 29-07-2019 00:00:00 21.16354 C 73.6146 % 16.26 C
727 30-07-2019 00:00:00 21.86528 C 66.5625 % 15.36 C
728 31-07-2019 00:00:00 21.06111 C 60.7778 % 13.2 C
729 01-08-2019 00:00:00 19.46424 C 65.5833 % 12.85 C
730 02-08-2019 00:00:00 20.52743 C 69.8611 % 14.84 C
731 03-08-2019 00:00:00 20.39271 C 72.5833 % 15.3 C
732 04-08-2019 00:00:00 20.53854 C 68.3681 % 14.51 C
733 05-08-2019 00:00:00 22.56562 C 67.3333 % 16.21 C
734 06-08-2019 00:00:00 19.97604 C 80.0104 % 16.42 C
735 07-08-2019 00:00:00 19.07535 C 87.4479 % 16.94 C
736 08-08-2019 00:00:00 20.39132 C 75.4826 % 15.91 C
737 09-08-2019 00:00:00 19.85833 C 86.8125 % 17.6 C
738 10-08-2019 00:00:00 20.67986 C 77.2986 % 16.56 C
739 11-08-2019 00:00:00 16.99444 C 80.9028 % 13.69 C
740 12-08-2019 00:00:00 16.4441 C 84.5729 % 13.84 C
741 13-08-2019 00:00:00 15.94306 C 78.5799 % 12.23 C
742 14-08-2019 00:00:00 16.52882 C 76.0139 % 12.29 C
743 15-08-2019 00:00:00 17.34306 C 88.4896 % 15.42 C
744 16-08-2019 00:00:00 17.72257 C 80.7049 % 14.37 C
745 17-08-2019 00:00:00 18.07049 C 86.6146 % 15.8 C
746 18-08-2019 00:00:00 19.8941 C 90.2847 % 18.25 C
747 19-08-2019 00:00:00 18.3684 C 77.8715 % 14.44 C
748 20-08-2019 00:00:00 15.78611 C 80.0347 % 12.35 C
749 21-08-2019 00:00:00 16.52222 C 75.4306 % 12.17 C
750 22-08-2019 00:00:00 17.27465 C 72.3576 % 12.26 C
Sensor: Nr:Datum:Temp:Feuchte:Taupunkt:
Aussen-T/F 751 23-08-2019 00:00:00 18.44792 C 70.9271 % 13.08 C
752 24-08-2019 00:00:00 19.52326 C 70.7153 % 14.06 C
753 25-08-2019 00:00:00 21.57431 C 75.4097 % 17.04 C
754 26-08-2019 00:00:00 22.3684 C 80.4097 % 18.83 C
755 27-08-2019 00:00:00 22.81979 C 79.4132 % 19.07 C
756 28-08-2019 00:00:00 23.38924 C 73.0868 % 18.29 C
757 29-08-2019 00:00:00 22.04201 C 76.9236 % 17.81 C
758 30-08-2019 00:00:00 21.0059 C 72.4444 % 15.86 C
759 31-08-2019 00:00:00 22.0566 C 72.1215 % 16.8 C
760 01-09-2019 00:00:00 18.73056 C 76.1563 % 14.45 C
761 02-09-2019 00:00:00 15.43958 C 67.8264 % 9.53 C
762 03-09-2019 00:00:00 15.68611 C 70.4340 % 10.33 C
763 04-09-2019 00:00:00 16.83646 C 77.0521 % 12.79 C
764 05-09-2019 00:00:00 15.41285 C 74.8958 % 10.99 C
765 06-09-2019 00:00:00 13.54271 C 71.3021 % 8.45 C
766 07-09-2019 00:00:00 12.95382 C 86.8160 % 10.81 C
767 08-09-2019 00:00:00 12.67778 C 94.2569 % 11.78 C
768 09-09-2019 00:00:00 12.50868 C 90.4583 % 10.99 C
769 10-09-2019 00:00:00 11.86563 C 85.2361 % 9.47 C
770 11-09-2019 00:00:00 13.34931 C 80.9444 % 10.15 C
771 12-09-2019 00:00:00 19.07292 C 78.3889 % 15.23 C
772 13-09-2019 00:00:00 17.76319 C 88.1424 % 15.78 C
773 14-09-2019 00:00:00 15.58229 C 81.1806 % 12.37 C
774 15-09-2019 00:00:00 15.40243 C 78.5451 % 11.69 C
775 16-09-2019 00:00:00 16.09444 C 78.7569 % 12.41 C
Sensor: Nr:Datum:Temp:Feuchte:Taupunkt:
Aussen-T/F 776 17-09-2019 00:00:00 15.6191 C 73.6736 % 10.94 C
777 18-09-2019 00:00:00 11.41215 C 73.9826 % 6.95 C
778 19-09-2019 00:00:00 10.47361 C 74.5903 % 6.16 C
779 20-09-2019 00:00:00 10.72153 C 72.3958 % 5.97 C
780 21-09-2019 00:00:00 12.32465 C 69.3090 % 6.87 C
781 22-09-2019 00:00:00 14.8625 C 75.8819 % 10.65 C
782 23-09-2019 00:00:00 16.54479 C 84.7118 % 13.96 C
783 24-09-2019 00:00:00 14.13194 C 90.2847 % 12.57 C
784 25-09-2019 00:00:00 15.26806 C 90.7986 % 13.77 C
785 26-09-2019 00:00:00 16.26111 C 92.6840 % 15.07 C
786 27-09-2019 00:00:00 16.20451 C 86.9097 % 14.02 C
787 28-09-2019 00:00:00 15.30903 C 84.9306 % 12.79 C
788 29-09-2019 00:00:00 16.12778 C 82.9965 % 13.24 C
789 30-09-2019 00:00:00 15.31424 C 80.2917 % 11.94 C
790 01-10-2019 00:00:00 15.98125 C 88.2743 % 14.04 C
791 02-10-2019 00:00:00 12.49479 C 83.0764 % 9.7 C
792 03-10-2019 00:00:00 9.77535 C 90.5313 % 8.3 C
793 04-10-2019 00:00:00 10.31563 C 95.1563 % 9.58 C
794 05-10-2019 00:00:00 10.64965 C 87.9444 % 8.74 C
795 06-10-2019 00:00:00 8.34063 C 95.9896 % 7.74 C
796 07-10-2019 00:00:00 10.09167 C 94.3785 % 9.23 C
797 08-10-2019 00:00:00 12.83333 C 94.7292 % 12.01 C
798 09-10-2019 00:00:00 11.68715 C 92.5069 % 10.51 C
799 10-10-2019 00:00:00 11.67509 C 86.3404 % 9.47 C
800 11-10-2019 00:00:00 12.72361 C 89.2500 % 11 C
Sensor: Nr:Datum:Temp:Feuchte:Taupunkt:
Aussen-T/F 801 12-10-2019 00:00:00 13.63368 C 89.1597 % 11.88 C
802 13-10-2019 00:00:00 16.44722 C 91.2153 % 15.01 C
803 14-10-2019 00:00:00 16.00938 C 89.6632 % 14.31 C
804 15-10-2019 00:00:00 14.32674 C 92.2014 % 13.08 C
805 16-10-2019 00:00:00 12.65347 C 94.1042 % 11.73 C
806 17-10-2019 00:00:00 14.64826 C 90.9861 % 13.19 C
807 18-10-2019 00:00:00 12.52604 C 91.7500 % 11.22 C
808 19-10-2019 00:00:00 12.88561 C 90.9460 % 11.44 C
809 20-10-2019 00:00:00 13.60139 C 97.5645 % 13.22 C
810 21-10-2019 00:00:00 13.67735 C 93.5157 % 12.65 C
811 22-10-2019 00:00:00 11.49819 C 91.8520 % 10.22 C
812 23-10-2019 00:00:00 11.05972 C 94.7847 % 10.26 C
813 24-10-2019 00:00:00 14.06458 C 92.1528 % 12.81 C
814 25-10-2019 00:00:00 13.32951 C 87.3889 % 11.28 C
815 26-10-2019 00:00:00 13.17604 C 91.4201 % 11.81 C
816 27-10-2019 00:00:00 10.25174 C 93.0868 % 9.19 C
817 28-10-2019 00:00:00 6.33854 C 96.7847 % 5.87 C
818 29-10-2019 00:00:00 6.56632 C 92.0972 % 5.38 C
819 30-10-2019 00:00:00 3.52778 C 93.9410 % 2.65 C
820 31-10-2019 00:00:00 2.23438 C 93.5799 % 1.31 C
821 01-11-2019 00:00:00 6.02465 C 96.1736 % 5.46 C
822 02-11-2019 00:00:00 13.19792 C 90.2188 % 11.63 C
823 03-11-2019 00:00:00 11.85035 C 91.8125 % 10.56 C
824 04-11-2019 00:00:00 10.33333 C 92.9306 % 9.24 C
825 05-11-2019 00:00:00 9.70972 C 89.4826 % 8.07 C
Sensor: Nr:Datum:Temp:Feuchte:Taupunkt:
Aussen-T/F 826 06-11-2019 00:00:00 8.97569 C 95.1563 % 8.24 C
827 07-11-2019 00:00:00 7.93611 C 95.3368 % 7.24 C
828 08-11-2019 00:00:00 4.99444 C 96.5208 % 4.49 C
829 09-11-2019 00:00:00 4.99167 C 94.0208 % 4.11 C
830 10-11-2019 00:00:00 3.02188 C 95.6250 % 2.39 C
831 11-11-2019 00:00:00 4.67986 C 91.5590 % 3.43 C
832 12-11-2019 00:00:00 5.9125 C 88.3194 % 4.13 C
833 13-11-2019 00:00:00 5.47431 C 88.2153 % 3.68 C
834 14-11-2019 00:00:00 5.50729 C 85.9549 % 3.35 C
835 15-11-2019 00:00:00 4.68958 C 88.1493 % 2.9 C
836 16-11-2019 00:00:00 2.11389 C 95.5069 % 1.47 C
837 17-11-2019 00:00:00 3.09271 C 97.1215 % 2.68 C
838 18-11-2019 00:00:00 4.31181 C 96.2604 % 3.77 C
839 19-11-2019 00:00:00 3.99132 C 94.7500 % 3.23 C
840 20-11-2019 00:00:00 1.59583 C 94.7847 % 0.85 C
841 21-11-2019 00:00:00 1.90833 C 96.0347 % 1.34 C
842 22-11-2019 00:00:00 4.39097 C 95.3056 % 3.71 C
843 23-11-2019 00:00:00 5.38785 C 93.0174 % 4.35 C
844 24-11-2019 00:00:00 2.90104 C 97.1979 % 2.5 C
845 25-11-2019 00:00:00 4.80833 C 97.1042 % 4.39 C
846 26-11-2019 00:00:00 8.38542 C 94.7500 % 7.59 C
847 27-11-2019 00:00:00 10.34479 C 89.7222 % 8.73 C
848 28-11-2019 00:00:00 10.92778 C 83.5694 % 8.26 C
849 29-11-2019 00:00:00 6.44618 C 89.1771 % 4.8 C
850 30-11-2019 00:00:00 1.19549 C 96.2257 % 0.66 C
Sensor: Nr:Datum:Temp:Feuchte:Taupunkt:
Aussen-T/F 851 01-12-2019 00:00:00 1.79271 C 92.4965 % 0.71 C
852 02-12-2019 00:00:00 1.98646 C 93.2778 % 1.02 C
853 03-12-2019 00:00:00 4.75729 C 96.0625 % 4.18 C
854 04-12-2019 00:00:00 1.34375 C 96.3681 % 0.83 C
855 05-12-2019 00:00:00 -1.15625 C 96.9167 % -1.58 C
856 06-12-2019 00:00:00 3.41285 C 93.3160 % 2.44 C
857 07-12-2019 00:00:00 8.70903 C 88.7882 % 6.97 C
858 08-12-2019 00:00:00 10.05903 C 86.0243 % 7.83 C
859 09-12-2019 00:00:00 7.72222 C 84.5833 % 5.29 C
860 10-12-2019 00:00:00 3.24757 C 90.9167 % 1.91 C
861 11-12-2019 00:00:00 3.97292 C 94.6632 % 3.2 C
862 12-12-2019 00:00:00 3.52361 C 93.9618 % 2.65 C
863 13-12-2019 00:00:00 4.09722 C 92.0938 % 2.93 C
864 14-12-2019 00:00:00 6.8934 C 85.5833 % 4.65 C
865 15-12-2019 00:00:00 7.90069 C 88.2847 % 6.09 C
866 16-12-2019 00:00:00 8.12951 C 96.7951 % 7.65 C
867 17-12-2019 00:00:00 10.43056 C 89.8924 % 8.85 C
868 18-12-2019 00:00:00 7.77014 C 93.5347 % 6.79 C
869 19-12-2019 00:00:00 5.57986 C 95.8611 % 4.97 C
870 20-12-2019 00:00:00 7.73264 C 92.3542 % 6.57 C
871 21-12-2019 00:00:00 7.24826 C 90.1111 % 5.74 C
872 22-12-2019 00:00:00 8.18368 C 89.0243 % 6.49 C
873 23-12-2019 00:00:00 7.83021 C 88.5660 % 6.06 C
874 24-12-2019 00:00:00 7.67986 C 89.1910 % 6.02 C
875 25-12-2019 00:00:00 7.66389 C 90.7500 % 6.25 C
Sensor: Nr:Datum:Temp:Feuchte:Taupunkt:
Aussen-T/F 876 26-12-2019 00:00:00 4.9934 C 96.1910 % 4.44 C
877 27-12-2019 00:00:00 5.12153 C 94.6042 % 4.33 C
878 28-12-2019 00:00:00 -0.27465 C 95.9965 % -0.83 C
879 29-12-2019 00:00:00 -1.04618 C 95.4028 % -1.69 C
880 30-12-2019 00:00:00 -0.88507 C 94.5521 % -1.65 C
881 31-12-2019 00:00:00 0.52326 C 93.2639 % -0.44 C
882 01-01-2020 00:00:00 0.89583 C 94.9653 % 0.18 C
883 02-01-2020 00:00:00 1.68611 C 94.9097 % 0.96 C
884 03-01-2020 00:00:00 7.56111 C 91.1042 % 6.21 C
885 04-01-2020 00:00:00 5.45936 C 89.2438 % 3.83 C
886 05-01-2020 00:00:00 5.96021 C 93.0845 % 4.93 C
887 06-01-2020 00:00:00 2.98542 C 93.2813 % 2.01 C
888 07-01-2020 00:00:00 5.07812 C 92.2535 % 3.93 C
889 08-01-2020 00:00:00 8.28333 C 92.5347 % 7.15 C
890 09-01-2020 00:00:00 10.92535 C 92.7778 % 9.8 C
891 10-01-2020 00:00:00 8.91667 C 88.2604 % 7.08 C
892 11-01-2020 00:00:00 4.34236 C 88.6354 % 2.64 C
893 12-01-2020 00:00:00 5.14718 C 87.9120 % 3.31 C
894 13-01-2020 00:00:00 6.54201 C 91.7431 % 5.3 C
895 14-01-2020 00:00:00 9.77153 C 77.8924 % 6.11 C
896 15-01-2020 00:00:00 10.89063 C 76.6285 % 6.95 C
897 16-01-2020 00:00:00 7.81181 C 95.4653 % 7.13 C
898 17-01-2020 00:00:00 6.03854 C 93.7014 % 5.1 C
899 18-01-2020 00:00:00 4.44062 C 88.2049 % 2.66 C
900 19-01-2020 00:00:00 3.78507 C 94.1736 % 2.94 C
Sensor: Nr:Datum:Temp:Feuchte:Taupunkt:
Aussen-T/F 901 20-01-2020 00:00:00 2.42431 C 91.7396 % 1.22 C
902 21-01-2020 00:00:00 -1.80243 C 96.3750 % -2.3 C
903 22-01-2020 00:00:00 -1.19236 C 97.1354 % -1.59 C
904 23-01-2020 00:00:00 1.30764 C 97.1111 % 0.9 C
905 24-01-2020 00:00:00 1.43415 C 91.4390 % 0.2 C
906 25-01-2020 00:00:00 2.65128 C 94.0366 % 1.79 C
907 26-01-2020 00:00:00 2.81007 C 94.9063 % 2.08 C
908 27-01-2020 00:00:00 6.29028 C 94.0347 % 5.4 C
909 28-01-2020 00:00:00 5.69583 C 86.0521 % 3.55 C
910 29-01-2020 00:00:00 4.80035 C 82.8264 % 2.14 C
911 30-01-2020 00:00:00 7.99861 C 84.7257 % 5.59 C
912 31-01-2020 00:00:00 13.03785 C 84.2014 % 10.44 C
913 01-02-2020 00:00:00 11.64167 C 87.8160 % 9.69 C
914 02-02-2020 00:00:00 10.18611 C 84.6319 % 7.72 C
915 03-02-2020 00:00:00 10.60417 C 82.2847 % 7.71 C
916 04-02-2020 00:00:00 5.02986 C 89.6736 % 3.48 C
917 05-02-2020 00:00:00 3.76389 C 88.0764 % 1.98 C
918 06-02-2020 00:00:00 0.78437 C 93.4340 % -0.15 C
919 07-02-2020 00:00:00 0.2559 C 95.0521 % -0.44 C
920 08-02-2020 00:00:00 1.77708 C 94.2569 % 0.95 C
921 09-02-2020 00:00:00 8.82708 C 82.6076 % 6.03 C
922 10-02-2020 00:00:00 8.29444 C 82.5104 % 5.5 C
923 11-02-2020 00:00:00 5.77535 C 73.1319 % 1.35 C
924 12-02-2020 00:00:00 4.81875 C 81.1910 % 1.87 C
925 13-02-2020 00:00:00 4.01076 C 92.9375 % 2.97 C
Sensor: Nr:Datum:Temp:Feuchte:Taupunkt:
Aussen-T/F 926 14-02-2020 00:00:00 6.17951 C 91.1042 % 4.84 C
927 15-02-2020 00:00:00 6.23438 C 89.5347 % 4.64 C
928 16-02-2020 00:00:00 14.59028 C 64.9583 % 8.08 C
929 17-02-2020 00:00:00 8.54375 C 82.6597 % 5.77 C
930 18-02-2020 00:00:00 7.24965 C 80.2083 % 4.07 C
931 19-02-2020 00:00:00 6.24514 C 77.9688 % 2.7 C
932 20-02-2020 00:00:00 8.16562 C 82.5000 % 5.37 C
933 21-02-2020 00:00:00 5.17604 C 82.3542 % 2.42 C
934 22-02-2020 00:00:00 8.05035 C 78.1007 % 4.47 C
935 23-02-2020 00:00:00 10.5066 C 86.7535 % 8.4 C
936 24-02-2020 00:00:00 8.10972 C 87.2431 % 6.12 C
937 25-02-2020 00:00:00 9.07813 C 81.3194 % 6.05 C
938 26-02-2020 00:00:00 4.86319 C 80.5799 % 1.81 C
939 27-02-2020 00:00:00 2.97813 C 90.2500 % 1.54 C
940 28-02-2020 00:00:00 3.97257 C 87.1111 % 2.03 C
941 29-02-2020 00:00:00 8.92083 C 83.1944 % 6.23 C
942 01-03-2020 00:00:00 7.55313 C 83.2500 % 4.9 C
943 02-03-2020 00:00:00 6.27882 C 88.9965 % 4.6 C
944 03-03-2020 00:00:00 4.69236 C 88.6910 % 2.99 C
945 04-03-2020 00:00:00 5.49583 C 85.8333 % 3.32 C
946 05-03-2020 00:00:00 6.08229 C 93.0486 % 5.05 C
947 06-03-2020 00:00:00 6.29896 C 90.4271 % 4.85 C
948 07-03-2020 00:00:00 6.57396 C 78.9375 % 3.19 C
949 08-03-2020 00:00:00 9.63993 C 76.9618 % 5.8 C
950 09-03-2020 00:00:00 7.99514 C 81.5208 % 5.03 C
Sensor: Nr:Datum:Temp:Feuchte:Taupunkt:
Aussen-T/F 951 10-03-2020 00:00:00 9.51076 C 90.5833 % 8.05 C
952 11-03-2020 00:00:00 14.09028 C 86.0660 % 11.8 C
953 12-03-2020 00:00:00 11.24514 C 72.6007 % 6.51 C
954 13-03-2020 00:00:00 7.37569 C 76.2951 % 3.49 C
955 14-03-2020 00:00:00 6.05799 C 83.2604 % 3.44 C
956 15-03-2020 00:00:00 8.92639 C 74.2326 % 4.6 C
957 16-03-2020 00:00:00 9.3 C 80.2431 % 6.08 C
958 17-03-2020 00:00:00 11.38021 C 79.9722 % 8.05 C
959 18-03-2020 00:00:00 9.96493 C 82.5590 % 7.14 C
960 19-03-2020 00:00:00 12.13646 C 76.1042 % 8.06 C
961 20-03-2020 00:00:00 10.33299 C 84.0660 % 7.76 C
962 21-03-2020 00:00:00 6.16667 C 76.4236 % 2.34 C
963 22-03-2020 00:00:00 4.50243 C 57.8438 % -3.06 C
964 23-03-2020 00:00:00 2.99688 C 55.3889 % -5.05 C
965 24-03-2020 00:00:00 2.86181 C 56.4375 % -4.93 C
966 25-03-2020 00:00:00 3.75208 C 52.7257 % -4.99 C
967 26-03-2020 00:00:00 5.07118 C 57.3819 % -2.64 C
968 27-03-2020 00:00:00 7.93715 C 66.7500 % 2.15 C
969 28-03-2020 00:00:00 9.59861 C 66.6528 % 3.71 C
970 29-03-2020 00:00:00 5.44891 C 69.6413 % 0.36 C
971 30-03-2020 00:00:00 2.775 C 64.1319 % -3.31 C
972 31-03-2020 00:00:00 5.47118 C 66.1771 % -0.32 C
973 01-04-2020 00:00:00 3.8184 C 62.2569 % -2.72 C
974 02-04-2020 00:00:00 5.06042 C 67.9931 % -0.35 C
975 03-04-2020 00:00:00 8.20382 C 67.0382 % 2.46 C
Sensor: Nr:Datum:Temp:Feuchte:Taupunkt:
Aussen-T/F 976 04-04-2020 00:00:00 6.78958 C 68.9722 % 1.51 C
977 05-04-2020 00:00:00 9.49479 C 65.0729 % 3.27 C
978 06-04-2020 00:00:00 12.0434 C 60.3299 % 4.61 C
979 07-04-2020 00:00:00 13.80521 C 67.0417 % 7.8 C
980 08-04-2020 00:00:00 14.48472 C 65.0764 % 8.01 C
981 09-04-2020 00:00:00 15.29167 C 62.6840 % 8.22 C
982 10-04-2020 00:00:00 14.13646 C 66.3542 % 7.96 C
983 11-04-2020 00:00:00 14.06563 C 57.0417 % 5.7 C
984 12-04-2020 00:00:00 15.15174 C 60.2361 % 7.51 C
985 13-04-2020 00:00:00 9.40139 C 69.2118 % 4.05 C
986 14-04-2020 00:00:00 6.11181 C 64.0868 % -0.16 C
987 15-04-2020 00:00:00 8.67361 C 64.9514 % 2.46 C
988 16-04-2020 00:00:00 12.83299 C 63.9514 % 6.19 C
989 17-04-2020 00:00:00 15.23854 C 69.5278 % 9.71 C
990 18-04-2020 00:00:00 14.52083 C 78.8333 % 10.89 C
991 19-04-2020 00:00:00 13.06597 C 78.2396 % 9.37 C
992 20-04-2020 00:00:00 12.5066 C 50.4653 % 2.51 C
993 21-04-2020 00:00:00 13.59583 C 47.9965 % 2.81 C
994 22-04-2020 00:00:00 14.35 C 50.4549 % 4.2 C
995 23-04-2020 00:00:00 14.16042 C 57.7604 % 5.97 C
996 24-04-2020 00:00:00 13.96285 C 61.8542 % 6.77 C
997 25-04-2020 00:00:00 12.06389 C 62.5347 % 5.14 C
998 26-04-2020 00:00:00 11.44375 C 66.4514 % 5.42 C
999 27-04-2020 00:00:00 12.89201 C 66.5382 % 6.82 C
1000 28-04-2020 00:00:00 12.69306 C 86.7639 % 10.55 C
Sensor: Nr:Datum:Temp:Feuchte:Taupunkt:
Aussen-T/F 1001 29-04-2020 00:00:00 14.31979 C 76.7049 % 10.29 C
1002 30-04-2020 00:00:00 12.21632 C 83.3299 % 9.48 C
1003 01-05-2020 00:00:00 10.57674 C 86.4444 % 8.41 C
1004 02-05-2020 00:00:00 9.93542 C 83.8403 % 7.33 C
1005 03-05-2020 00:00:00 10.39028 C 77.2500 % 6.59 C
1006 04-05-2020 00:00:00 11.82361 C 83.7986 % 9.18 C
1007 05-05-2020 00:00:00 10.30833 C 68.8333 % 4.84 C
1008 06-05-2020 00:00:00 10.34687 C 62.9375 % 3.61 C
1009 07-05-2020 00:00:00 12.36771 C 67.0278 % 6.43 C
1010 08-05-2020 00:00:00 15.11146 C 64.7535 % 8.53 C
1011 09-05-2020 00:00:00 15.97396 C 71.7986 % 10.89 C
1012 10-05-2020 00:00:00 15.5441 C 87.0729 % 13.4 C
1013 11-05-2020 00:00:00 9.41007 C 72.6944 % 4.76 C
1014 12-05-2020 00:00:00 7.67674 C 65.0833 % 1.54 C
1015 13-05-2020 00:00:00 8.92604 C 67.5104 % 3.25 C
1016 14-05-2020 00:00:00 9.71389 C 66.2535 % 3.73 C
1017 15-05-2020 00:00:00 10.43264 C 60.9375 % 3.23 C
1018 16-05-2020 00:00:00 11.17396 C 64.1319 % 4.66 C
1019 17-05-2020 00:00:00 13.11528 C 63.3750 % 6.33 C
1020 18-05-2020 00:00:00 15.67292 C 64.9167 % 9.1 C
1021 19-05-2020 00:00:00 16.60729 C 65.8542 % 10.2 C
1022 20-05-2020 00:00:00 17.77917 C 71.9375 % 12.65 C
1023 21-05-2020 00:00:00 19.01562 C 69.2535 % 13.26 C
1024 22-05-2020 00:00:00 19.97639 C 75.2535 % 15.46 C
1025 23-05-2020 00:00:00 13.69236 C 87.6181 % 11.68 C
Sensor: Nr:Datum:Temp:Feuchte:Taupunkt:
Aussen-T/F 1026 24-05-2020 00:00:00 13.58542 C 74.5799 % 9.16 C
1027 25-05-2020 00:00:00 15.93854 C 74.9514 % 11.51 C
1028 26-05-2020 00:00:00 14.58437 C 71.8056 % 9.56 C
1029 27-05-2020 00:00:00 16.48611 C 64.8958 % 9.87 C
1030 28-05-2020 00:00:00 17.49132 C 54.2049 % 8.15 C
1031 29-05-2020 00:00:00 15.20764 C 57.9097 % 6.98 C
1032 30-05-2020 00:00:00 15.6941 C 55.5278 % 6.83 C
1033 31-05-2020 00:00:00 15.11597 C 60.7847 % 7.61 C
1034 01-06-2020 00:00:00 17.87257 C 60.3785 % 10.1 C
1035 02-06-2020 00:00:00 19.76701 C 57.8264 % 11.23 C
1036 03-06-2020 00:00:00 19.96667 C 60.3333 % 12.06 C
1037 04-06-2020 00:00:00 14.67257 C 91.4792 % 13.3 C
1038 05-06-2020 00:00:00 11.51111 C 85.9722 % 9.25 C
1039 06-06-2020 00:00:00 12.4684 C 81.1806 % 9.33 C
1040 07-06-2020 00:00:00 13.39861 C 74.3194 % 8.93 C
1041 08-06-2020 00:00:00 14.75035 C 72.9375 % 9.95 C
1042 09-06-2020 00:00:00 13.99236 C 88.3715 % 12.1 C
1043 10-06-2020 00:00:00 15.4 C 85.7326 % 13.02 C
1044 11-06-2020 00:00:00 15.74271 C 85.5799 % 13.33 C
1045 12-06-2020 00:00:00 19.42083 C 73.5938 % 14.58 C
1046 13-06-2020 00:00:00 20.95799 C 70.8958 % 15.48 C
1047 14-06-2020 00:00:00 18.87917 C 80.4340 % 15.44 C
1048 15-06-2020 00:00:00 18.60291 C 80.5345 % 15.19 C
1049 16-06-2020 00:00:00 18.0434 C 88.9236 % 16.19 C
1050 17-06-2020 00:00:00 17.45903 C 89.6771 % 15.75 C
Sensor: Nr:Datum:Temp:Feuchte:Taupunkt:
Aussen-T/F 1051 18-06-2020 00:00:00 18.51528 C 77.4028 % 14.49 C
1052 19-06-2020 00:00:00 16.72674 C 84.4549 % 14.09 C
1053 20-06-2020 00:00:00 16.94271 C 84.7535 % 14.36 C
1054 21-06-2020 00:00:00 19.05278 C 74.7396 % 14.47 C
1055 22-06-2020 00:00:00 18.83785 C 72.4236 % 13.77 C
1056 23-06-2020 00:00:00 19.59583 C 68.6840 % 13.69 C
1057 24-06-2020 00:00:00 21.22153 C 60.2153 % 13.21 C
1058 25-06-2020 00:00:00 21.70278 C 67.7535 % 15.48 C
1059 26-06-2020 00:00:00 21.67743 C 70.8264 % 16.15 C
1060 27-06-2020 00:00:00 22.68785 C 72.4479 % 17.48 C
1061 28-06-2020 00:00:00 19.86979 C 72.4236 % 14.77 C
1062 29-06-2020 00:00:00 17.69792 C 71.6701 % 12.52 C
1063 30-06-2020 00:00:00 16.88194 C 71.2639 % 11.65 C
1064 01-07-2020 00:00:00 21.29896 C 71.3889 % 15.91 C
1065 02-07-2020 00:00:00 18.73125 C 81.7639 % 15.55 C
1066 03-07-2020 00:00:00 17.73958 C 72.1597 % 12.66 C
1067 04-07-2020 00:00:00 19.09826 C 68.4722 % 13.16 C
1068 05-07-2020 00:00:00 22.80243 C 71.1076 % 17.29 C
1069 06-07-2020 00:00:00 16.79653 C 65.8646 % 10.38 C
1070 07-07-2020 00:00:00 16.09792 C 67.7292 % 10.14 C
1071 08-07-2020 00:00:00 15.87639 C 86.0139 % 13.54 C
1072 09-07-2020 00:00:00 21.61424 C 74.6667 % 16.92 C
1073 10-07-2020 00:00:00 18.63368 C 78.6215 % 14.85 C
1074 11-07-2020 00:00:00 16.57431 C 67.3646 % 10.51 C
1075 12-07-2020 00:00:00 16.85382 C 66.0139 % 10.47 C
Sensor: Nr:Datum:Temp:Feuchte:Taupunkt:
Aussen-T/F 1076 13-07-2020 00:00:00 19.08542 C 59.6354 % 11.05 C
1077 14-07-2020 00:00:00 18.66215 C 67.1389 % 12.45 C
1078 15-07-2020 00:00:00 17.55208 C 72.7569 % 12.61 C
1079 16-07-2020 00:00:00 16.0875 C 88.8715 % 14.25 C
1080 17-07-2020 00:00:00 18.58611 C 80.2222 % 15.11 C
1081 18-07-2020 00:00:00 19.51944 C 74.3264 % 14.83 C
1082 19-07-2020 00:00:00 22.30451 C 63.0590 % 14.94 C
1083 20-07-2020 00:00:00 19.42708 C 71.6215 % 14.17 C
1084 21-07-2020 00:00:00 17.64722 C 62.2118 % 10.34 C
1085 22-07-2020 00:00:00 17.13264 C 62.9931 % 10.04 C
1086 23-07-2020 00:00:00 18.84618 C 60.0208 % 10.93 C
1087 24-07-2020 00:00:00 21.21007 C 59.2118 % 12.94 C
1088 25-07-2020 00:00:00 21.01562 C 67.9618 % 14.88 C
1089 26-07-2020 00:00:00 20.87674 C 70.5660 % 15.33 C
1090 27-07-2020 00:00:00 21.66215 C 63.9306 % 14.54 C
1091 28-07-2020 00:00:00 22.91424 C 54.3299 % 13.21 C
1092 29-07-2020 00:00:00 18.94583 C 61.6007 % 11.41 C
1093 30-07-2020 00:00:00 20.4309 C 59.1424 % 12.19 C
1094 31-07-2020 00:00:00 24.16007 C 52.9340 % 13.96 C
1095 01-08-2020 00:00:00 21.98437 C 78.4896 % 18.07 C
1096 02-08-2020 00:00:00 21.28472 C 73.8993 % 16.44 C

Maximal/Minimal-Werte vom 03.08.2017 - 02.08.2020

Sensor Min Max Avg
Temp
(Aussen-T/F)
-10.4 °C
27-02-2018  07:25:00
40.4 °C
25-07-2019  16:20:00
11.47 °C
Feuchte
(Aussen-T/F)
18 %
03-07-2018  17:25:00
99 %
19-10-2017  14:05:00
81.43 %
Taupunkt
(Aussen-T/F)
-11.99 C
28-02-2018  00:00:00
20.21 C
26-06-2019  00:00:00
8.2 C

Die Daten stammen von einer Davis Vantage Pro 2 Wetter-Station und werden unter Linux mit der Software wview2wettercgi und aufbereitet. Alle Angaben erfolgen ohne Gewähr für ihre Vollständigkeit oder Richtigkeit.
Kontakt: Rainer Krienke krienke@uni-koblenz.de . Meine Webseiten an der Uni Koblenz oder privat.
Version: $Revision: 0.78 $